sensor_id;sensor_type;location;lat;lon;timestamp;P1;P2;P0
80639;PMS5003;69992;60.170;24.692;2023-07-31T00:01:57;7;7;
80639;PMS5003;69992;60.170;24.692;2023-07-31T00:04:22;7;7;
80639;PMS5003;69992;60.170;24.692;2023-07-31T00:06:48;7;7;
80639;PMS5003;69992;60.170;24.692;2023-07-31T00:09:14;7;7;
80639;PMS5003;69992;60.170;24.692;2023-07-31T00:11:39;5;5;
80639;PMS5003;69992;60.170;24.692;2023-07-31T00:14:05;8;7;
80639;PMS5003;69992;60.170;24.692;2023-07-31T00:16:30;8;8;
80639;PMS5003;69992;60.170;24.692;2023-07-31T00:18:56;8;8;
80639;PMS5003;69992;60.170;24.692;2023-07-31T00:21:21;9;8;
80639;PMS5003;69992;60.170;24.692;2023-07-31T00:23:47;7;7;
80639;PMS5003;69992;60.170;24.692;2023-07-31T00:26:12;8;8;
80639;PMS5003;69992;60.170;24.692;2023-07-31T00:28:38;9;9;
80639;PMS5003;69992;60.170;24.692;2023-07-31T00:31:03;9;8;
80639;PMS5003;69992;60.170;24.692;2023-07-31T00:33:30;6;6;
80639;PMS5003;69992;60.170;24.692;2023-07-31T00:35:54;8;8;
80639;PMS5003;69992;60.170;24.692;2023-07-31T00:38:20;9;9;
80639;PMS5003;69992;60.170;24.692;2023-07-31T00:40:45;7;7;
80639;PMS5003;69992;60.170;24.692;2023-07-31T00:45:37;11;10;
80639;PMS5003;69992;60.170;24.692;2023-07-31T00:48:02;8;8;
80639;PMS5003;69992;60.170;24.692;2023-07-31T00:50:28;7;7;
80639;PMS5003;69992;60.170;24.692;2023-07-31T00:52:53;8;8;
80639;PMS5003;69992;60.170;24.692;2023-07-31T00:55:19;10;9;
80639;PMS5003;69992;60.170;24.692;2023-07-31T00:57:44;7;7;
80639;PMS5003;69992;60.170;24.692;2023-07-31T01:00:10;8;8;
80639;PMS5003;69992;60.170;24.692;2023-07-31T01:02:35;6;6;
80639;PMS5003;69992;60.170;24.692;2023-07-31T01:05:01;6;6;
80639;PMS5003;69992;60.170;24.692;2023-07-31T01:07:27;7;7;
80639;PMS5003;69992;60.170;24.692;2023-07-31T01:09:54;6;6;
80639;PMS5003;69992;60.170;24.692;2023-07-31T01:12:18;5;5;
80639;PMS5003;69992;60.170;24.692;2023-07-31T01:17:09;5;5;
80639;PMS5003;69992;60.170;24.692;2023-07-31T01:19:34;8;7;
80639;PMS5003;69992;60.170;24.692;2023-07-31T01:22:11;6;5;
80639;PMS5003;69992;60.170;24.692;2023-07-31T01:24:28;6;6;
80639;PMS5003;69992;60.170;24.692;2023-07-31T01:26:53;8;8;
80639;PMS5003;69992;60.170;24.692;2023-07-31T01:29:17;6;6;
80639;PMS5003;69992;60.170;24.692;2023-07-31T01:31:42;7;6;
80639;PMS5003;69992;60.170;24.692;2023-07-31T01:34:07;6;6;
80639;PMS5003;69992;60.170;24.692;2023-07-31T01:36:33;6;6;
80639;PMS5003;69992;60.170;24.692;2023-07-31T01:38:59;7;7;
80639;PMS5003;69992;60.170;24.692;2023-07-31T01:41:24;6;6;
80639;PMS5003;69992;60.170;24.692;2023-07-31T01:43:50;8;8;
80639;PMS5003;69992;60.170;24.692;2023-07-31T01:46:15;6;5;
80639;PMS5003;69992;60.170;24.692;2023-07-31T01:48:41;6;6;
80639;PMS5003;69992;60.170;24.692;2023-07-31T01:51:06;6;6;
80639;PMS5003;69992;60.170;24.692;2023-07-31T01:53:32;7;7;
80639;PMS5003;69992;60.170;24.692;2023-07-31T01:55:57;6;6;
80639;PMS5003;69992;60.170;24.692;2023-07-31T01:58:23;6;6;
80639;PMS5003;69992;60.170;24.692;2023-07-31T02:00:49;6;6;
80639;PMS5003;69992;60.170;24.692;2023-07-31T02:03:14;5;5;
80639;PMS5003;69992;60.170;24.692;2023-07-31T02:05:43;6;6;
80639;PMS5003;69992;60.170;24.692;2023-07-31T02:08:05;5;5;
80639;PMS5003;69992;60.170;24.692;2023-07-31T02:10:31;5;5;
80639;PMS5003;69992;60.170;24.692;2023-07-31T02:12:56;5;5;
80639;PMS5003;69992;60.170;24.692;2023-07-31T02:15:22;7;6;
80639;PMS5003;69992;60.170;24.692;2023-07-31T02:17:47;4;4;
80639;PMS5003;69992;60.170;24.692;2023-07-31T02:20:13;5;5;
80639;PMS5003;69992;60.170;24.692;2023-07-31T02:22:38;4;4;
80639;PMS5003;69992;60.170;24.692;2023-07-31T02:25:04;7;7;
80639;PMS5003;69992;60.170;24.692;2023-07-31T02:27:29;5;5;
80639;PMS5003;69992;60.170;24.692;2023-07-31T02:29:55;7;6;
80639;PMS5003;69992;60.170;24.692;2023-07-31T02:32:21;5;5;
80639;PMS5003;69992;60.170;24.692;2023-07-31T02:34:46;4;4;
80639;PMS5003;69992;60.170;24.692;2023-07-31T02:37:12;3;3;
80639;PMS5003;69992;60.170;24.692;2023-07-31T02:39:37;5;5;
80639;PMS5003;69992;60.170;24.692;2023-07-31T02:42:03;5;5;
80639;PMS5003;69992;60.170;24.692;2023-07-31T02:44:28;5;5;
80639;PMS5003;69992;60.170;24.692;2023-07-31T02:46:54;5;5;
80639;PMS5003;69992;60.170;24.692;2023-07-31T02:49:20;4;3;
80639;PMS5003;69992;60.170;24.692;2023-07-31T02:51:45;5;5;
80639;PMS5003;69992;60.170;24.692;2023-07-31T02:54:10;6;6;
80639;PMS5003;69992;60.170;24.692;2023-07-31T02:56:36;6;5;
80639;PMS5003;69992;60.170;24.692;2023-07-31T02:59:02;6;6;
80639;PMS5003;69992;60.170;24.692;2023-07-31T03:01:27;5;4;
80639;PMS5003;69992;60.170;24.692;2023-07-31T03:03:53;4;4;
80639;PMS5003;69992;60.170;24.692;2023-07-31T03:06:18;4;4;
80639;PMS5003;69992;60.170;24.692;2023-07-31T03:08:44;2;2;
80639;PMS5003;69992;60.170;24.692;2023-07-31T03:11:09;5;5;
80639;PMS5003;69992;60.170;24.692;2023-07-31T03:13:35;5;4;
80639;PMS5003;69992;60.170;24.692;2023-07-31T03:16:00;5;5;
80639;PMS5003;69992;60.170;24.692;2023-07-31T03:18:26;5;5;
80639;PMS5003;69992;60.170;24.692;2023-07-31T03:20:52;5;4;
80639;PMS5003;69992;60.170;24.692;2023-07-31T03:23:17;5;5;
80639;PMS5003;69992;60.170;24.692;2023-07-31T03:28:08;6;6;
80639;PMS5003;69992;60.170;24.692;2023-07-31T03:30:35;5;5;
80639;PMS5003;69992;60.170;24.692;2023-07-31T03:32:59;5;5;
80639;PMS5003;69992;60.170;24.692;2023-07-31T03:35:25;5;5;
80639;PMS5003;69992;60.170;24.692;2023-07-31T03:37:50;4;4;
80639;PMS5003;69992;60.170;24.692;2023-07-31T03:40:16;5;5;
80639;PMS5003;69992;60.170;24.692;2023-07-31T03:42:42;6;6;
80639;PMS5003;69992;60.170;24.692;2023-07-31T03:45:08;5;5;
80639;PMS5003;69992;60.170;24.692;2023-07-31T03:47:33;5;5;
80639;PMS5003;69992;60.170;24.692;2023-07-31T03:49:58;6;5;
80639;PMS5003;69992;60.170;24.692;2023-07-31T03:52:24;6;5;
80639;PMS5003;69992;60.170;24.692;2023-07-31T03:54:49;5;5;
80639;PMS5003;69992;60.170;24.692;2023-07-31T03:57:15;5;5;
80639;PMS5003;69992;60.170;24.692;2023-07-31T03:59:40;4;4;
80639;PMS5003;69992;60.170;24.692;2023-07-31T04:02:06;4;4;
80639;PMS5003;69992;60.170;24.692;2023-07-31T04:04:31;5;5;
80639;PMS5003;69992;60.170;24.692;2023-07-31T04:06:57;5;4;
80639;PMS5003;69992;60.170;24.692;2023-07-31T04:09:23;5;5;
80639;PMS5003;69992;60.170;24.692;2023-07-31T04:11:48;4;4;
80639;PMS5003;69992;60.170;24.692;2023-07-31T04:14:14;6;5;
80639;PMS5003;69992;60.170;24.692;2023-07-31T04:16:39;5;5;
80639;PMS5003;69992;60.170;24.692;2023-07-31T04:19:05;3;3;
80639;PMS5003;69992;60.170;24.692;2023-07-31T04:21:30;5;5;
80639;PMS5003;69992;60.170;24.692;2023-07-31T04:23:56;4;4;
80639;PMS5003;69992;60.170;24.692;2023-07-31T04:26:22;6;6;
80639;PMS5003;69992;60.170;24.692;2023-07-31T04:28:47;3;3;
80639;PMS5003;69992;60.170;24.692;2023-07-31T04:31:13;5;5;
80639;PMS5003;69992;60.170;24.692;2023-07-31T04:33:38;4;4;
80639;PMS5003;69992;60.170;24.692;2023-07-31T04:36:04;4;4;
80639;PMS5003;69992;60.170;24.692;2023-07-31T04:38:29;5;5;
80639;PMS5003;69992;60.170;24.692;2023-07-31T04:40:55;4;4;
80639;PMS5003;69992;60.170;24.692;2023-07-31T04:43:20;3;3;
80639;PMS5003;69992;60.170;24.692;2023-07-31T04:45:46;4;4;
80639;PMS5003;69992;60.170;24.692;2023-07-31T04:48:12;6;5;
80639;PMS5003;69992;60.170;24.692;2023-07-31T04:50:37;8;7;
80639;PMS5003;69992;60.170;24.692;2023-07-31T04:53:03;7;7;
80639;PMS5003;69992;60.170;24.692;2023-07-31T04:55:28;6;6;
80639;PMS5003;69992;60.170;24.692;2023-07-31T04:57:54;5;5;
80639;PMS5003;69992;60.170;24.692;2023-07-31T05:00:19;6;5;
80639;PMS5003;69992;60.170;24.692;2023-07-31T05:02:45;5;5;
80639;PMS5003;69992;60.170;24.692;2023-07-31T05:05:10;6;6;
80639;PMS5003;69992;60.170;24.692;2023-07-31T05:07:36;4;4;
80639;PMS5003;69992;60.170;24.692;2023-07-31T05:10:02;4;3;
80639;PMS5003;69992;60.170;24.692;2023-07-31T05:12:27;5;4;
80639;PMS5003;69992;60.170;24.692;2023-07-31T05:14:53;5;5;
80639;PMS5003;69992;60.170;24.692;2023-07-31T05:17:18;5;5;
80639;PMS5003;69992;60.170;24.692;2023-07-31T05:19:44;4;4;
80639;PMS5003;69992;60.170;24.692;2023-07-31T05:22:09;5;5;
80639;PMS5003;69992;60.170;24.692;2023-07-31T05:24:35;5;5;
80639;PMS5003;69992;60.170;24.692;2023-07-31T05:27:00;6;5;
80639;PMS5003;69992;60.170;24.692;2023-07-31T05:29:26;5;5;
80639;PMS5003;69992;60.170;24.692;2023-07-31T05:31:52;7;7;
80639;PMS5003;69992;60.170;24.692;2023-07-31T05:34:17;5;5;
80639;PMS5003;69992;60.170;24.692;2023-07-31T05:36:43;5;5;
80639;PMS5003;69992;60.170;24.692;2023-07-31T05:39:08;6;6;
80639;PMS5003;69992;60.170;24.692;2023-07-31T05:41:35;6;5;
80639;PMS5003;69992;60.170;24.692;2023-07-31T05:43:59;6;5;
80639;PMS5003;69992;60.170;24.692;2023-07-31T05:46:25;7;7;
80639;PMS5003;69992;60.170;24.692;2023-07-31T05:48:50;5;5;
80639;PMS5003;69992;60.170;24.692;2023-07-31T05:51:16;4;4;
80639;PMS5003;69992;60.170;24.692;2023-07-31T05:53:42;8;7;
80639;PMS5003;69992;60.170;24.692;2023-07-31T05:56:07;7;7;
80639;PMS5003;69992;60.170;24.692;2023-07-31T05:58:33;7;7;
80639;PMS5003;69992;60.170;24.692;2023-07-31T06:00:58;6;6;
80639;PMS5003;69992;60.170;24.692;2023-07-31T06:03:24;6;6;
80639;PMS5003;69992;60.170;24.692;2023-07-31T06:05:49;5;5;
80639;PMS5003;69992;60.170;24.692;2023-07-31T06:08:15;6;6;
80639;PMS5003;69992;60.170;24.692;2023-07-31T06:10:41;7;7;
80639;PMS5003;69992;60.170;24.692;2023-07-31T06:13:06;6;6;
80639;PMS5003;69992;60.170;24.692;2023-07-31T06:15:32;5;5;
80639;PMS5003;69992;60.170;24.692;2023-07-31T06:17:57;7;5;
80639;PMS5003;69992;60.170;24.692;2023-07-31T06:20:23;6;6;
80639;PMS5003;69992;60.170;24.692;2023-07-31T06:22:48;8;8;
80639;PMS5003;69992;60.170;24.692;2023-07-31T06:25:15;4;4;
80639;PMS5003;69992;60.170;24.692;2023-07-31T06:27:39;7;7;
80639;PMS5003;69992;60.170;24.692;2023-07-31T06:30:05;6;6;
80639;PMS5003;69992;60.170;24.692;2023-07-31T06:32:30;5;5;
80639;PMS5003;69992;60.170;24.692;2023-07-31T06:34:56;7;7;
80639;PMS5003;69992;60.170;24.692;2023-07-31T06:37:21;7;7;
80639;PMS5003;69992;60.170;24.692;2023-07-31T06:39:47;6;6;
80639;PMS5003;69992;60.170;24.692;2023-07-31T06:42:13;4;4;
80639;PMS5003;69992;60.170;24.692;2023-07-31T06:44:38;6;6;
80639;PMS5003;69992;60.170;24.692;2023-07-31T06:47:04;6;6;
80639;PMS5003;69992;60.170;24.692;2023-07-31T06:49:29;7;7;
80639;PMS5003;69992;60.170;24.692;2023-07-31T06:51:55;7;6;
80639;PMS5003;69992;60.170;24.692;2023-07-31T06:54:20;8;8;
80639;PMS5003;69992;60.170;24.692;2023-07-31T06:56:46;6;6;
80639;PMS5003;69992;60.170;24.692;2023-07-31T06:59:11;7;7;
80639;PMS5003;69992;60.170;24.692;2023-07-31T07:01:37;7;7;
80639;PMS5003;69992;60.170;24.692;2023-07-31T07:04:02;8;8;
80639;PMS5003;69992;60.170;24.692;2023-07-31T07:06:28;9;9;
80639;PMS5003;69992;60.170;24.692;2023-07-31T07:08:54;7;7;
80639;PMS5003;69992;60.170;24.692;2023-07-31T07:11:19;7;7;
80639;PMS5003;69992;60.170;24.692;2023-07-31T07:13:44;7;7;
80639;PMS5003;69992;60.170;24.692;2023-07-31T07:16:10;6;6;
80639;PMS5003;69992;60.170;24.692;2023-07-31T07:18:35;7;7;
80639;PMS5003;69992;60.170;24.692;2023-07-31T07:21:01;8;8;
80639;PMS5003;69992;60.170;24.692;2023-07-31T07:23:26;8;8;
80639;PMS5003;69992;60.170;24.692;2023-07-31T07:25:52;9;9;
80639;PMS5003;69992;60.170;24.692;2023-07-31T07:28:17;10;10;
80639;PMS5003;69992;60.170;24.692;2023-07-31T07:30:43;10;9;
80639;PMS5003;69992;60.170;24.692;2023-07-31T07:33:08;9;9;
80639;PMS5003;69992;60.170;24.692;2023-07-31T07:35:34;9;9;
80639;PMS5003;69992;60.170;24.692;2023-07-31T07:37:59;8;8;
80639;PMS5003;69992;60.170;24.692;2023-07-31T07:40:25;8;7;
80639;PMS5003;69992;60.170;24.692;2023-07-31T07:42:50;8;8;
80639;PMS5003;69992;60.170;24.692;2023-07-31T07:45:16;8;8;
80639;PMS5003;69992;60.170;24.692;2023-07-31T07:47:41;11;10;
80639;PMS5003;69992;60.170;24.692;2023-07-31T07:50:07;10;9;
80639;PMS5003;69992;60.170;24.692;2023-07-31T07:52:33;7;7;
80639;PMS5003;69992;60.170;24.692;2023-07-31T07:54:58;10;10;
80639;PMS5003;69992;60.170;24.692;2023-07-31T07:57:24;9;9;
80639;PMS5003;69992;60.170;24.692;2023-07-31T07:59:49;8;7;
80639;PMS5003;69992;60.170;24.692;2023-07-31T08:02:15;9;9;
80639;PMS5003;69992;60.170;24.692;2023-07-31T08:04:40;9;9;
80639;PMS5003;69992;60.170;24.692;2023-07-31T08:07:06;9;8;
80639;PMS5003;69992;60.170;24.692;2023-07-31T08:09:31;9;9;
80639;PMS5003;69992;60.170;24.692;2023-07-31T08:11:57;10;10;
80639;PMS5003;69992;60.170;24.692;2023-07-31T08:14:22;8;8;
80639;PMS5003;69992;60.170;24.692;2023-07-31T08:16:48;7;7;
80639;PMS5003;69992;60.170;24.692;2023-07-31T08:19:13;9;9;
80639;PMS5003;69992;60.170;24.692;2023-07-31T08:21:39;7;7;
80639;PMS5003;69992;60.170;24.692;2023-07-31T08:24:04;7;7;
80639;PMS5003;69992;60.170;24.692;2023-07-31T08:26:30;8;8;
80639;PMS5003;69992;60.170;24.692;2023-07-31T08:28:55;7;7;
80639;PMS5003;69992;60.170;24.692;2023-07-31T08:31:21;9;8;
80639;PMS5003;69992;60.170;24.692;2023-07-31T08:33:46;8;8;
80639;PMS5003;69992;60.170;24.692;2023-07-31T08:36:12;8;8;
80639;PMS5003;69992;60.170;24.692;2023-07-31T08:38:37;8;8;
80639;PMS5003;69992;60.170;24.692;2023-07-31T08:41:03;7;7;
80639;PMS5003;69992;60.170;24.692;2023-07-31T08:43:28;7;6;
80639;PMS5003;69992;60.170;24.692;2023-07-31T08:45:54;9;9;
80639;PMS5003;69992;60.170;24.692;2023-07-31T08:48:20;8;8;
80639;PMS5003;69992;60.170;24.692;2023-07-31T08:50:45;9;9;
80639;PMS5003;69992;60.170;24.692;2023-07-31T08:53:10;26;24;
80639;PMS5003;69992;60.170;24.692;2023-07-31T08:55:36;10;10;
80639;PMS5003;69992;60.170;24.692;2023-07-31T08:58:01;6;6;
80639;PMS5003;69992;60.170;24.692;2023-07-31T09:00:26;9;9;
80639;PMS5003;69992;60.170;24.692;2023-07-31T09:02:54;10;7;
80639;PMS5003;69992;60.170;24.692;2023-07-31T09:05:17;8;8;
80639;PMS5003;69992;60.170;24.692;2023-07-31T09:07:43;8;7;
80639;PMS5003;69992;60.170;24.692;2023-07-31T09:10:08;8;7;
80639;PMS5003;69992;60.170;24.692;2023-07-31T09:12:33;7;7;
80639;PMS5003;69992;60.170;24.692;2023-07-31T09:14:59;7;7;
80639;PMS5003;69992;60.170;24.692;2023-07-31T09:17:30;8;8;
80639;PMS5003;69992;60.170;24.692;2023-07-31T09:19:50;8;8;
80639;PMS5003;69992;60.170;24.692;2023-07-31T09:22:16;6;6;
80639;PMS5003;69992;60.170;24.692;2023-07-31T09:24:41;5;5;
80639;PMS5003;69992;60.170;24.692;2023-07-31T09:27:06;6;6;
80639;PMS5003;69992;60.170;24.692;2023-07-31T09:29:32;8;8;
80639;PMS5003;69992;60.170;24.692;2023-07-31T09:31:57;8;8;
80639;PMS5003;69992;60.170;24.692;2023-07-31T09:34:28;8;8;
80639;PMS5003;69992;60.170;24.692;2023-07-31T09:36:49;7;7;
80639;PMS5003;69992;60.170;24.692;2023-07-31T09:39:14;6;6;
80639;PMS5003;69992;60.170;24.692;2023-07-31T09:41:40;6;6;
80639;PMS5003;69992;60.170;24.692;2023-07-31T09:44:05;6;6;
80639;PMS5003;69992;60.170;24.692;2023-07-31T09:46:30;6;6;
80639;PMS5003;69992;60.170;24.692;2023-07-31T09:51:26;6;6;
80639;PMS5003;69992;60.170;24.692;2023-07-31T09:53:49;6;6;
80639;PMS5003;69992;60.170;24.692;2023-07-31T09:56:12;5;5;
80639;PMS5003;69992;60.170;24.692;2023-07-31T09:58:37;7;7;
80639;PMS5003;69992;60.170;24.692;2023-07-31T10:01:03;6;6;
80639;PMS5003;69992;60.170;24.692;2023-07-31T10:03:28;5;5;
80639;PMS5003;69992;60.170;24.692;2023-07-31T10:05:53;5;5;
80639;PMS5003;69992;60.170;24.692;2023-07-31T10:08:20;6;6;
80639;PMS5003;69992;60.170;24.692;2023-07-31T10:10:45;7;7;
80639;PMS5003;69992;60.170;24.692;2023-07-31T10:13:10;5;5;
80639;PMS5003;69992;60.170;24.692;2023-07-31T10:15:35;5;5;
80639;PMS5003;69992;60.170;24.692;2023-07-31T10:18:01;4;4;
80639;PMS5003;69992;60.170;24.692;2023-07-31T10:20:26;6;6;
80639;PMS5003;69992;60.170;24.692;2023-07-31T10:22:51;6;5;
80639;PMS5003;69992;60.170;24.692;2023-07-31T10:25:17;4;4;
80639;PMS5003;69992;60.170;24.692;2023-07-31T10:27:42;5;5;
80639;PMS5003;69992;60.170;24.692;2023-07-31T10:30:08;6;6;
80639;PMS5003;69992;60.170;24.692;2023-07-31T10:32:33;3;3;
80639;PMS5003;69992;60.170;24.692;2023-07-31T10:34:59;6;6;
80639;PMS5003;69992;60.170;24.692;2023-07-31T10:37:24;3;3;
80639;PMS5003;69992;60.170;24.692;2023-07-31T10:39:58;4;4;
80639;PMS5003;69992;60.170;24.692;2023-07-31T10:42:15;5;5;
80639;PMS5003;69992;60.170;24.692;2023-07-31T10:44:43;5;5;
80639;PMS5003;69992;60.170;24.692;2023-07-31T10:47:06;5;5;
80639;PMS5003;69992;60.170;24.692;2023-07-31T10:49:31;5;5;
80639;PMS5003;69992;60.170;24.692;2023-07-31T10:51:56;5;4;
80639;PMS5003;69992;60.170;24.692;2023-07-31T10:54:22;4;4;
80639;PMS5003;69992;60.170;24.692;2023-07-31T10:56:50;4;4;
80639;PMS5003;69992;60.170;24.692;2023-07-31T10:59:12;5;5;
80639;PMS5003;69992;60.170;24.692;2023-07-31T11:04:10;6;5;
80639;PMS5003;69992;60.170;24.692;2023-07-31T11:06:29;4;4;
80639;PMS5003;69992;60.170;24.692;2023-07-31T11:08:54;4;4;
80639;PMS5003;69992;60.170;24.692;2023-07-31T11:11:20;5;5;
80639;PMS5003;69992;60.170;24.692;2023-07-31T11:13:45;3;3;
80639;PMS5003;69992;60.170;24.692;2023-07-31T11:16:11;5;5;
80639;PMS5003;69992;60.170;24.692;2023-07-31T11:18:37;7;7;
80639;PMS5003;69992;60.170;24.692;2023-07-31T11:21:01;7;6;
80639;PMS5003;69992;60.170;24.692;2023-07-31T11:23:27;6;6;
80639;PMS5003;69992;60.170;24.692;2023-07-31T11:25:52;6;6;
80639;PMS5003;69992;60.170;24.692;2023-07-31T11:28:18;6;6;
80639;PMS5003;69992;60.170;24.692;2023-07-31T11:30:43;6;6;
80639;PMS5003;69992;60.170;24.692;2023-07-31T11:33:09;6;6;
80639;PMS5003;69992;60.170;24.692;2023-07-31T11:35:35;6;6;
80639;PMS5003;69992;60.170;24.692;2023-07-31T11:38:00;3;3;
80639;PMS5003;69992;60.170;24.692;2023-07-31T11:40:25;6;5;
80639;PMS5003;69992;60.170;24.692;2023-07-31T11:42:50;6;6;
80639;PMS5003;69992;60.170;24.692;2023-07-31T11:45:16;4;4;
80639;PMS5003;69992;60.170;24.692;2023-07-31T11:47:41;5;5;
80639;PMS5003;69992;60.170;24.692;2023-07-31T11:50:09;5;5;
80639;PMS5003;69992;60.170;24.692;2023-07-31T11:52:33;6;6;
80639;PMS5003;69992;60.170;24.692;2023-07-31T11:54:57;5;4;
80639;PMS5003;69992;60.170;24.692;2023-07-31T11:57:23;5;5;
80639;PMS5003;69992;60.170;24.692;2023-07-31T11:59:48;5;5;
80639;PMS5003;69992;60.170;24.692;2023-07-31T12:02:13;4;4;
80639;PMS5003;69992;60.170;24.692;2023-07-31T12:04:39;4;4;
80639;PMS5003;69992;60.170;24.692;2023-07-31T12:07:05;5;5;
80639;PMS5003;69992;60.170;24.692;2023-07-31T12:09:30;6;6;
80639;PMS5003;69992;60.170;24.692;2023-07-31T12:11:55;5;5;
80639;PMS5003;69992;60.170;24.692;2023-07-31T12:14:21;5;5;
80639;PMS5003;69992;60.170;24.692;2023-07-31T12:16:46;6;6;
80639;PMS5003;69992;60.170;24.692;2023-07-31T12:19:11;4;3;
80639;PMS5003;69992;60.170;24.692;2023-07-31T12:21:37;3;3;
80639;PMS5003;69992;60.170;24.692;2023-07-31T12:24:02;4;4;
80639;PMS5003;69992;60.170;24.692;2023-07-31T12:26:33;3;3;
80639;PMS5003;69992;60.170;24.692;2023-07-31T12:28:54;4;3;
80639;PMS5003;69992;60.170;24.692;2023-07-31T12:31:19;2;2;
80639;PMS5003;69992;60.170;24.692;2023-07-31T12:33:44;3;3;
80639;PMS5003;69992;60.170;24.692;2023-07-31T12:36:10;3;2;
80639;PMS5003;69992;60.170;24.692;2023-07-31T12:38:35;5;5;
80639;PMS5003;69992;60.170;24.692;2023-07-31T12:41:00;2;2;
80639;PMS5003;69992;60.170;24.692;2023-07-31T12:43:25;3;3;
80639;PMS5003;69992;60.170;24.692;2023-07-31T12:45:51;3;3;
80639;PMS5003;69992;60.170;24.692;2023-07-31T12:48:16;2;2;
80639;PMS5003;69992;60.170;24.692;2023-07-31T12:50:41;2;2;
80639;PMS5003;69992;60.170;24.692;2023-07-31T12:53:07;3;3;
80639;PMS5003;69992;60.170;24.692;2023-07-31T12:55:32;2;2;
80639;PMS5003;69992;60.170;24.692;2023-07-31T12:57:58;4;4;
80639;PMS5003;69992;60.170;24.692;2023-07-31T13:00:23;4;4;
80639;PMS5003;69992;60.170;24.692;2023-07-31T13:02:48;3;3;
80639;PMS5003;69992;60.170;24.692;2023-07-31T13:05:14;3;3;
80639;PMS5003;69992;60.170;24.692;2023-07-31T13:07:39;3;3;
80639;PMS5003;69992;60.170;24.692;2023-07-31T13:10:05;3;3;
80639;PMS5003;69992;60.170;24.692;2023-07-31T13:12:30;4;4;
80639;PMS5003;69992;60.170;24.692;2023-07-31T13:14:55;4;4;
80639;PMS5003;69992;60.170;24.692;2023-07-31T13:17:20;3;3;
80639;PMS5003;69992;60.170;24.692;2023-07-31T13:19:46;3;3;
80639;PMS5003;69992;60.170;24.692;2023-07-31T13:22:11;3;3;
80639;PMS5003;69992;60.170;24.692;2023-07-31T13:24:36;3;3;
80639;PMS5003;69992;60.170;24.692;2023-07-31T13:27:02;3;3;
80639;PMS5003;69992;60.170;24.692;2023-07-31T13:29:27;1;1;
80639;PMS5003;69992;60.170;24.692;2023-07-31T13:31:52;4;4;
80639;PMS5003;69992;60.170;24.692;2023-07-31T13:34:17;3;3;
80639;PMS5003;69992;60.170;24.692;2023-07-31T13:36:43;0;0;
80639;PMS5003;69992;60.170;24.692;2023-07-31T13:39:08;2;2;
80639;PMS5003;69992;60.170;24.692;2023-07-31T13:41:33;3;3;
80639;PMS5003;69992;60.170;24.692;2023-07-31T13:43:58;3;3;
80639;PMS5003;69992;60.170;24.692;2023-07-31T13:46:24;3;3;
80639;PMS5003;69992;60.170;24.692;2023-07-31T13:48:49;3;3;
80639;PMS5003;69992;60.170;24.692;2023-07-31T13:51:14;2;2;
80639;PMS5003;69992;60.170;24.692;2023-07-31T13:53:39;3;3;
80639;PMS5003;69992;60.170;24.692;2023-07-31T13:56:05;2;2;
80639;PMS5003;69992;60.170;24.692;2023-07-31T13:58:30;4;4;
80639;PMS5003;69992;60.170;24.692;2023-07-31T14:00:55;3;3;
80639;PMS5003;69992;60.170;24.692;2023-07-31T14:03:20;3;3;
80639;PMS5003;69992;60.170;24.692;2023-07-31T14:05:46;3;3;
80639;PMS5003;69992;60.170;24.692;2023-07-31T14:08:11;3;2;
80639;PMS5003;69992;60.170;24.692;2023-07-31T14:10:36;3;3;
80639;PMS5003;69992;60.170;24.692;2023-07-31T14:13:02;3;3;
80639;PMS5003;69992;60.170;24.692;2023-07-31T14:15:27;5;5;
80639;PMS5003;69992;60.170;24.692;2023-07-31T14:17:52;17;15;
80639;PMS5003;69992;60.170;24.692;2023-07-31T14:20:18;5;5;
80639;PMS5003;69992;60.170;24.692;2023-07-31T14:22:43;5;4;
80639;PMS5003;69992;60.170;24.692;2023-07-31T14:25:09;3;3;
80639;PMS5003;69992;60.170;24.692;2023-07-31T14:27:34;5;4;
80639;PMS5003;69992;60.170;24.692;2023-07-31T14:29:59;2;2;
80639;PMS5003;69992;60.170;24.692;2023-07-31T14:32:25;4;4;
80639;PMS5003;69992;60.170;24.692;2023-07-31T14:34:50;3;3;
80639;PMS5003;69992;60.170;24.692;2023-07-31T14:37:16;3;3;
80639;PMS5003;69992;60.170;24.692;2023-07-31T14:39:41;4;4;
80639;PMS5003;69992;60.170;24.692;2023-07-31T14:42:06;4;4;
80639;PMS5003;69992;60.170;24.692;2023-07-31T14:44:32;5;5;
80639;PMS5003;69992;60.170;24.692;2023-07-31T14:46:57;4;3;
80639;PMS5003;69992;60.170;24.692;2023-07-31T14:49:22;4;4;
80639;PMS5003;69992;60.170;24.692;2023-07-31T14:51:48;6;5;
80639;PMS5003;69992;60.170;24.692;2023-07-31T14:54:13;6;5;
80639;PMS5003;69992;60.170;24.692;2023-07-31T14:56:38;4;4;
80639;PMS5003;69992;60.170;24.692;2023-07-31T14:59:04;4;4;
80639;PMS5003;69992;60.170;24.692;2023-07-31T15:01:29;5;5;
80639;PMS5003;69992;60.170;24.692;2023-07-31T15:03:54;5;4;
80639;PMS5003;69992;60.170;24.692;2023-07-31T15:06:20;2;2;
80639;PMS5003;69992;60.170;24.692;2023-07-31T15:08:45;5;5;
80639;PMS5003;69992;60.170;24.692;2023-07-31T15:11:10;4;4;
80639;PMS5003;69992;60.170;24.692;2023-07-31T15:13:36;3;3;
80639;PMS5003;69992;60.170;24.692;2023-07-31T15:16:01;4;4;
80639;PMS5003;69992;60.170;24.692;2023-07-31T15:18:27;4;4;
80639;PMS5003;69992;60.170;24.692;2023-07-31T15:20:53;4;4;
80639;PMS5003;69992;60.170;24.692;2023-07-31T15:23:18;6;5;
80639;PMS5003;69992;60.170;24.692;2023-07-31T15:25:43;4;4;
80639;PMS5003;69992;60.170;24.692;2023-07-31T15:28:08;4;3;
80639;PMS5003;69992;60.170;24.692;2023-07-31T15:30:35;3;3;
80639;PMS5003;69992;60.170;24.692;2023-07-31T15:32:59;3;3;
80639;PMS5003;69992;60.170;24.692;2023-07-31T15:35:25;3;3;
80639;PMS5003;69992;60.170;24.692;2023-07-31T15:37:50;3;3;
80639;PMS5003;69992;60.170;24.692;2023-07-31T15:40:16;4;4;
80639;PMS5003;69992;60.170;24.692;2023-07-31T15:42:41;4;4;
80639;PMS5003;69992;60.170;24.692;2023-07-31T15:45:07;4;3;
80639;PMS5003;69992;60.170;24.692;2023-07-31T15:47:32;5;5;
80639;PMS5003;69992;60.170;24.692;2023-07-31T15:49:57;2;2;
80639;PMS5003;69992;60.170;24.692;2023-07-31T15:52:23;4;4;
80639;PMS5003;69992;60.170;24.692;2023-07-31T15:54:48;3;3;
80639;PMS5003;69992;60.170;24.692;2023-07-31T15:57:14;4;4;
80639;PMS5003;69992;60.170;24.692;2023-07-31T15:59:39;2;2;
80639;PMS5003;69992;60.170;24.692;2023-07-31T16:02:04;4;4;
80639;PMS5003;69992;60.170;24.692;2023-07-31T16:04:30;3;3;
80639;PMS5003;69992;60.170;24.692;2023-07-31T16:06:55;2;2;
80639;PMS5003;69992;60.170;24.692;2023-07-31T16:09:21;2;2;
80639;PMS5003;69992;60.170;24.692;2023-07-31T16:11:46;3;3;
80639;PMS5003;69992;60.170;24.692;2023-07-31T16:14:11;3;3;
80639;PMS5003;69992;60.170;24.692;2023-07-31T16:16:37;3;3;
80639;PMS5003;69992;60.170;24.692;2023-07-31T16:19:02;3;3;
80639;PMS5003;69992;60.170;24.692;2023-07-31T16:21:28;3;3;
80639;PMS5003;69992;60.170;24.692;2023-07-31T16:23:53;4;4;
80639;PMS5003;69992;60.170;24.692;2023-07-31T16:26:19;4;4;
80639;PMS5003;69992;60.170;24.692;2023-07-31T16:28:44;4;4;
80639;PMS5003;69992;60.170;24.692;2023-07-31T16:31:09;4;4;
80639;PMS5003;69992;60.170;24.692;2023-07-31T16:33:35;2;2;